createdAt,value
2022-10-13T00:44:06.799Z,58.69
2022-10-13T00:47:00.048Z,58.73
2022-10-13T00:56:47.150Z,58.62
2022-10-13T00:59:45.201Z,58.59
2022-10-13T01:02:34.634Z,58.52
2022-10-13T01:05:41.250Z,58.58
2022-10-13T01:09:17.407Z,58.48
2022-10-13T01:27:16.516Z,58.53
2022-10-13T03:35:05.525Z,58.55
2022-10-13T03:38:30.532Z,58.46
2022-10-13T06:33:06.094Z,58.84
2022-10-13T06:35:34.793Z,58.46
2022-10-13T06:38:03.428Z,58.50
2022-10-13T06:40:32.285Z,58.55
2022-10-13T06:43:02.203Z,58.55
2022-10-13T06:46:18.006Z,58.98
2022-10-13T07:52:44.313Z,58.54
2022-10-13T07:55:15.749Z,58.42
2022-10-13T07:58:39.599Z,59.00
2022-10-13T08:01:20.378Z,58.58
2022-10-13T08:03:51.134Z,58.82
2022-10-13T08:06:31.581Z,58.52
2022-10-13T08:11:46.744Z,58.47
2022-10-13T08:17:20.776Z,58.53
2022-10-13T08:23:35.360Z,57.97
2022-10-13T08:26:18.952Z,58.22
2022-10-13T08:29:02.801Z,58.05
2022-10-13T08:32:06.197Z,57.96
2022-10-13T08:34:39.890Z,57.88
2022-10-13T08:37:08.060Z,58.36
2022-10-13T08:39:37.130Z,57.98
2022-10-13T08:42:18.578Z,58.05
2022-10-13T08:45:16.095Z,57.88
2022-10-13T08:48:48.170Z,57.70
2022-10-13T08:51:32.941Z,57.67
2022-10-13T08:55:09.236Z,57.82
2022-10-13T08:57:43.912Z,57.45
2022-10-13T09:00:32.582Z,57.14
2022-10-13T09:03:16.060Z,57.16
2022-10-13T09:06:07.747Z,57.23
2022-10-13T09:08:42.572Z,57.34
2022-10-13T09:11:13.882Z,57.45
2022-10-13T09:23:08.345Z,57.03
2022-10-13T09:33:52.816Z,56.76
2022-10-13T09:37:15.842Z,56.91
2022-10-13T09:39:44.098Z,56.70
2022-10-13T09:42:32.034Z,56.46
2022-10-13T09:45:34.738Z,56.28
2022-10-13T09:50:49.133Z,56.13
2022-10-13T09:53:25.904Z,56.52
2022-10-13T09:56:10.160Z,56.33
2022-10-13T10:01:22.356Z,56.07
2022-10-13T10:03:52.474Z,56.11
2022-10-13T10:06:28.078Z,56.05
2022-10-13T10:09:04.825Z,55.90
2022-10-13T10:11:40.237Z,55.57
2022-10-13T10:14:18.967Z,55.51
2022-10-13T10:16:58.679Z,55.03
2022-10-13T10:19:50.415Z,55.04
2022-10-13T10:22:35.984Z,54.80
2022-10-13T10:25:46.303Z,54.59
2022-10-13T10:28:45.649Z,54.44
2022-10-13T10:31:28.616Z,54.50
2022-10-13T10:34:07.304Z,54.48
2022-10-13T10:36:43.482Z,54.26
2022-10-13T10:39:28.169Z,54.40
2022-10-13T10:42:04.837Z,54.42
2022-10-13T10:44:55.602Z,54.46
2022-10-13T10:47:28.416Z,54.20
2022-10-13T10:50:08.555Z,54.07
2022-10-13T10:52:52.230Z,53.70
2022-10-13T10:58:33.607Z,53.71
2022-10-13T11:04:40.516Z,53.47
2022-10-13T11:07:15.055Z,53.19
2022-10-13T11:10:21.512Z,53.33
2022-10-13T11:13:26.409Z,53.61
2022-10-13T11:15:55.616Z,53.45
2022-10-13T11:19:06.082Z,53.33
2022-10-13T11:22:10.895Z,53.38
2022-10-13T11:24:54.578Z,53.47
2022-10-13T11:27:29.457Z,53.59
2022-10-13T11:30:01.358Z,53.21
2022-10-13T11:32:55.756Z,52.57
2022-10-13T11:35:29.871Z,52.55
2022-10-13T11:38:17.930Z,51.65
2022-10-13T11:41:06.147Z,51.35
2022-10-13T11:43:45.612Z,51.21
2022-10-13T11:46:27.911Z,50.85
2022-10-13T11:49:11.895Z,50.69
2022-10-13T11:52:07.143Z,50.32
2022-10-13T11:54:39.555Z,49.88
2022-10-13T11:57:20.220Z,49.05
2022-10-13T11:59:49.642Z,48.83
2022-10-13T12:02:20.141Z,48.71
2022-10-13T12:05:02.485Z,48.94
2022-10-13T12:07:36.634Z,49.13
2022-10-13T12:10:09.833Z,48.98
2022-10-13T12:12:46.976Z,48.52
2022-10-13T12:15:31.402Z,48.94
2022-10-13T12:18:01.243Z,48.81
2022-10-13T12:20:31.643Z,48.50
2022-10-13T12:23:02.130Z,48.64
2022-10-13T12:25:33.916Z,48.42
2022-10-13T12:28:03.675Z,48.88
2022-10-13T12:30:37.412Z,48.89
2022-10-13T12:33:24.113Z,49.32
2022-10-13T12:35:52.396Z,49.46
2022-10-13T12:38:22.367Z,49.20
2022-10-13T12:40:53.720Z,48.91
2022-10-13T12:43:26.639Z,48.60
2022-10-13T12:49:10.874Z,48.19
2022-10-13T12:51:41.848Z,47.85
2022-10-13T12:54:33.433Z,47.34
2022-10-13T12:57:08.536Z,47.10
2022-10-13T12:59:51.653Z,47.14
2022-10-13T13:02:27.296Z,46.73
2022-10-13T13:05:04.921Z,46.18
2022-10-13T13:07:54.767Z,45.89
2022-10-13T13:10:24.576Z,45.95
2022-10-13T13:12:55.759Z,44.95
2022-10-13T13:15:36.053Z,44.91
2022-10-13T13:18:36.250Z,45.08
2022-10-13T13:21:07.319Z,44.41
2022-10-13T13:23:37.054Z,44.17
2022-10-13T13:26:13.376Z,43.55
2022-10-13T13:28:47.795Z,44.11
2022-10-13T13:31:18.411Z,43.93
2022-10-13T13:33:47.948Z,44.18
2022-10-13T13:36:20.219Z,44.37
2022-10-13T13:38:51.625Z,44.56
2022-10-13T13:41:22.405Z,44.72
2022-10-13T13:43:52.177Z,44.87
2022-10-13T13:46:27.968Z,44.61
2022-10-13T13:48:58.035Z,44.45
2022-10-13T13:51:27.449Z,44.27
2022-10-13T13:54:08.632Z,44.13
2022-10-13T13:56:38.751Z,43.43
2022-10-13T13:59:08.360Z,42.94
2022-10-13T14:01:37.056Z,42.07
2022-10-13T14:04:05.843Z,42.68
2022-10-13T14:06:34.639Z,42.28
2022-10-13T14:09:05.495Z,42.19
2022-10-13T14:11:33.922Z,42.10
2022-10-13T14:14:05.491Z,41.36
2022-10-13T14:16:33.673Z,42.10
2022-10-13T14:19:02.318Z,42.56
2022-10-13T14:21:31.954Z,42.65
2022-10-13T14:24:04.757Z,42.77
2022-10-13T14:26:35.516Z,43.22
2022-10-13T14:29:06.079Z,43.38
2022-10-13T14:31:37.930Z,42.67
2022-10-13T14:34:06.308Z,42.53
2022-10-13T14:36:36.162Z,42.43
2022-10-13T14:39:05.056Z,42.87
2022-10-13T14:41:35.245Z,42.96
2022-10-13T14:44:05.753Z,43.62
2022-10-13T14:46:34.161Z,43.56
2022-10-13T14:49:02.988Z,43.02
2022-10-13T14:51:33.499Z,43.01
2022-10-13T14:54:06.456Z,42.40
2022-10-13T14:56:36.866Z,42.13
2022-10-13T14:59:07.800Z,41.63
2022-10-13T15:01:36.029Z,41.81
2022-10-13T15:04:08.103Z,41.38
2022-10-13T15:06:42.016Z,41.90
2022-10-13T15:09:14.499Z,42.44
2022-10-13T15:11:48.809Z,42.95
2022-10-13T15:14:17.986Z,43.24
2022-10-13T15:16:48.103Z,43.53
2022-10-13T15:19:16.862Z,44.31
2022-10-13T15:21:46.153Z,44.99
2022-10-13T15:24:17.362Z,45.23
2022-10-13T15:26:58.179Z,45.24
2022-10-13T15:29:27.675Z,45.33
2022-10-13T15:32:13.543Z,45.64
2022-10-13T15:34:53.038Z,45.86
2022-10-13T15:40:28.037Z,46.67
2022-10-13T15:42:57.947Z,47.28
2022-10-13T15:45:27.837Z,47.49
2022-10-13T15:48:07.768Z,47.66
2022-10-13T15:50:39.959Z,48.04
2022-10-13T15:53:08.721Z,48.17
2022-10-13T15:55:50.988Z,48.46
2022-10-13T15:58:25.544Z,48.87
2022-10-13T16:00:53.872Z,49.26
2022-10-13T16:03:22.443Z,49.28
2022-10-13T16:05:51.686Z,49.40
2022-10-13T16:08:20.335Z,49.44
2022-10-13T16:10:51.582Z,50.00
2022-10-13T16:13:21.343Z,49.72
2022-10-13T16:16:05.124Z,50.13
2022-10-13T16:18:39.442Z,50.23
2022-10-13T16:21:17.320Z,49.96
2022-10-13T16:23:55.929Z,49.86
2022-10-13T16:26:36.388Z,49.65
2022-10-13T16:29:06.335Z,50.17
2022-10-13T16:31:40.871Z,50.32
2022-10-13T16:34:17.135Z,50.20
2022-10-13T16:36:45.363Z,50.19
2022-10-13T16:39:13.589Z,50.35
2022-10-13T16:41:42.009Z,50.28
2022-10-13T16:44:15.847Z,50.43
2022-10-13T16:46:44.956Z,50.27
2022-10-13T16:49:13.732Z,50.45
2022-10-13T16:51:42.085Z,50.61
2022-10-13T16:54:10.220Z,50.64
2022-10-13T16:56:38.572Z,50.87
2022-10-13T16:59:07.928Z,50.79
2022-10-13T17:01:37.863Z,50.64
2022-10-13T17:04:06.554Z,50.86
2022-10-13T17:06:40.927Z,50.82
2022-10-13T17:09:14.602Z,51.40
2022-10-13T17:11:43.612Z,51.29
2022-10-13T17:14:12.386Z,51.12
2022-10-13T17:16:57.955Z,52.17
2022-10-13T17:19:26.741Z,51.81
2022-10-13T17:21:55.278Z,51.80
2022-10-13T17:24:24.061Z,51.86
2022-10-13T17:26:52.273Z,52.02
2022-10-13T17:29:20.652Z,51.71
2022-10-13T17:32:00.438Z,51.87
2022-10-13T17:34:28.781Z,51.72
2022-10-13T17:36:56.927Z,52.02
2022-10-13T17:39:24.847Z,51.86
2022-10-13T17:41:52.881Z,52.02
2022-10-13T17:44:21.432Z,52.08
2022-10-13T17:46:51.008Z,51.97
2022-10-13T17:49:19.351Z,52.27
2022-10-13T17:51:47.803Z,52.28
2022-10-13T17:54:16.789Z,52.40
2022-10-13T17:56:45.427Z,52.44
2022-10-13T17:59:13.870Z,52.33
2022-10-13T18:01:42.693Z,52.19
2022-10-13T18:04:15.484Z,52.24
2022-10-13T18:06:44.890Z,52.30
2022-10-13T18:09:15.191Z,52.31
2022-10-13T18:11:49.673Z,52.07
2022-10-13T18:14:18.310Z,52.00
2022-10-13T18:16:46.950Z,51.86
2022-10-13T18:19:16.788Z,52.08
2022-10-13T18:21:44.959Z,52.14
2022-10-13T18:24:13.368Z,52.03
2022-10-13T18:26:42.260Z,52.31
2022-10-13T18:29:12.168Z,52.20
2022-10-13T18:31:44.097Z,52.33
2022-10-13T18:34:15.121Z,52.37
2022-10-13T18:36:47.381Z,52.54
2022-10-13T18:39:18.152Z,52.48
2022-10-13T18:41:46.865Z,52.54
2022-10-13T18:44:15.400Z,52.53
2022-10-13T18:46:44.016Z,52.67
2022-10-13T18:49:14.525Z,52.60
2022-10-13T18:51:42.884Z,52.52
2022-10-13T18:54:13.005Z,52.78
2022-10-13T18:56:41.293Z,52.72
2022-10-13T18:59:10.063Z,52.85
2022-10-13T19:01:39.593Z,53.12
2022-10-13T19:04:15.255Z,52.99
2022-10-13T19:06:44.353Z,52.84
2022-10-13T19:09:26.562Z,53.04
2022-10-13T19:11:57.105Z,53.07
2022-10-13T19:14:25.784Z,52.97
2022-10-13T19:16:57.066Z,53.23
2022-10-13T19:19:28.032Z,53.15
2022-10-13T19:21:56.875Z,52.98
2022-10-13T19:24:26.631Z,53.27
2022-10-13T19:26:56.330Z,53.46
2022-10-13T19:29:24.675Z,53.19
2022-10-13T19:31:53.116Z,53.14
2022-10-13T19:34:21.436Z,53.36
2022-10-13T19:36:50.080Z,53.31
2022-10-13T19:39:21.458Z,53.34
2022-10-13T19:41:53.425Z,53.31
2022-10-13T19:44:23.563Z,53.43
2022-10-13T19:46:53.215Z,53.42
2022-10-13T19:49:23.632Z,53.41
2022-10-13T19:51:53.912Z,53.48
2022-10-13T19:54:23.191Z,53.41
2022-10-13T19:56:53.879Z,53.55
2022-10-13T19:59:22.252Z,53.27
2022-10-13T20:01:50.960Z,53.55
2022-10-13T20:04:21.115Z,53.75
2022-10-13T20:06:50.528Z,53.56
2022-10-13T20:09:18.854Z,53.45
2022-10-13T20:11:50.095Z,53.60
2022-10-13T20:14:20.306Z,53.63
2022-10-13T20:16:48.622Z,53.66
2022-10-13T20:19:19.612Z,53.75
2022-10-13T20:21:51.687Z,53.71
2022-10-13T20:24:20.795Z,53.69
2022-10-13T20:26:48.877Z,53.61
2022-10-13T20:29:17.325Z,53.98
2022-10-13T20:31:47.558Z,53.99
2022-10-13T20:34:15.803Z,54.00
2022-10-13T20:36:45.045Z,54.31
2022-10-13T20:39:13.175Z,54.12
2022-10-13T20:41:41.490Z,54.12
2022-10-13T20:44:11.302Z,54.09
2022-10-13T20:46:40.270Z,54.20
2022-10-13T20:49:12.274Z,54.19
2022-10-13T20:51:42.898Z,54.06
2022-10-13T20:54:11.983Z,54.18
2022-10-13T20:56:40.977Z,54.21
2022-10-13T20:59:10.787Z,54.15
2022-10-13T21:01:39.686Z,54.49
2022-10-13T21:04:10.326Z,54.40
2022-10-13T21:06:38.668Z,54.36
2022-10-13T21:09:07.389Z,54.46
2022-10-13T21:11:36.495Z,54.56
2022-10-13T21:14:07.103Z,54.50
2022-10-13T21:16:36.322Z,54.68
2022-10-13T21:19:04.984Z,54.36
2022-10-13T21:21:36.132Z,54.53
2022-10-13T21:24:07.590Z,54.44
2022-10-13T21:26:36.678Z,54.53
2022-10-13T21:29:06.383Z,54.68
2022-10-13T21:31:35.079Z,54.46
2022-10-13T21:34:03.494Z,54.47
2022-10-13T21:36:35.820Z,54.65
2022-10-13T21:39:27.360Z,54.45
2022-10-13T21:41:56.645Z,54.47
2022-10-13T21:44:28.099Z,54.83
2022-10-13T21:46:56.377Z,54.80
2022-10-13T21:49:24.660Z,54.78
2022-10-13T21:51:54.675Z,54.45
2022-10-13T21:54:23.259Z,54.72
2022-10-13T21:56:51.838Z,54.67
2022-10-13T21:59:20.165Z,54.74
2022-10-13T22:01:50.256Z,54.76
2022-10-13T22:04:22.852Z,54.83
2022-10-13T22:06:55.898Z,54.41
2022-10-13T22:09:25.756Z,54.69
2022-10-13T22:11:57.771Z,54.66
2022-10-13T22:14:30.805Z,54.71
2022-10-13T22:17:05.429Z,54.65
2022-10-13T22:19:35.052Z,54.84
2022-10-13T22:22:03.915Z,54.65
2022-10-13T22:24:35.687Z,54.84
2022-10-13T22:27:12.808Z,54.88
2022-10-13T22:29:43.301Z,54.78
2022-10-13T22:32:13.380Z,54.85
2022-10-13T22:34:44.287Z,54.49
2022-10-13T22:37:13.562Z,54.97
2022-10-13T22:39:43.239Z,54.97
2022-10-13T22:42:15.287Z,54.74
2022-10-13T22:44:43.874Z,54.52
2022-10-13T22:47:12.361Z,55.06
2022-10-13T22:49:41.483Z,54.84
2022-10-13T22:52:10.263Z,54.73
2022-10-13T22:54:38.514Z,54.82
2022-10-13T22:57:08.338Z,54.86
2022-10-13T22:59:36.831Z,54.79
2022-10-13T23:02:05.311Z,54.82
2022-10-13T23:04:33.739Z,54.95
2022-10-13T23:07:02.037Z,55.10
2022-10-13T23:09:31.143Z,54.89
2022-10-13T23:12:00.059Z,54.83
2022-10-13T23:14:29.836Z,54.92
2022-10-13T23:16:58.450Z,54.79
2022-10-13T23:19:27.700Z,54.73
2022-10-13T23:21:56.043Z,55.04
2022-10-13T23:24:24.345Z,54.96
2022-10-13T23:26:56.101Z,55.00
2022-10-13T23:29:24.389Z,54.86
2022-10-13T23:31:54.242Z,55.12
2022-10-13T23:34:23.135Z,54.78
2022-10-13T23:36:56.069Z,55.02
2022-10-13T23:39:24.451Z,54.95
2022-10-13T23:41:52.758Z,54.97
2022-10-13T23:44:20.959Z,54.62
2022-10-13T23:46:49.210Z,54.98
2022-10-13T23:49:19.098Z,54.81
2022-10-13T23:51:49.144Z,54.87
2022-10-13T23:54:17.238Z,54.88
2022-10-13T23:56:45.511Z,55.00
2022-10-13T23:59:13.791Z,54.94
